KCHK/CHK METAR and TAF weather

Enter ICAO airport designator
Station Type Date Time Source
KCHK METAR 2021/09/24 00:15 UTC NOAA

KCHK 240015Z AUTO 15006KT 10SM CLR 25/05 A2999 RMK AO2 T02500054


Station Type Date Time Source
KCHK Decoded METAR 2021/09/24 00:15 UTC NOAA

Chickasha, Chickasha Municipal Airport, OK, United States (KCHK) 35-05-46N 097-57-58W
Sep 23, 2021 - 08:15 PM EDT / 2021.09.24 0015 UTC
Wind: from the SSE (150 degrees) at 7 MPH (6 KT):0
Visibility: 10 mile(s):0
Sky conditions: clear
Temperature: 77.0 F (25.0 C)
Dew Point: 41.7 F (5.4 C)
Relative Humidity: 28%
Pressure (altimeter): 29.99 in. Hg (1015 hPa)
ob: KCHK 240015Z AUTO 15006KT 10SM CLR 25/05 A2999 RMK AO2 T02500054
cycle: 0

Station Type Date Time Source
KCHK TAF UTC NOAA

Error!

Example: see airport list